createdAt,value
2024-04-06T00:00:43.247Z,0.00
2024-04-06T00:01:43.213Z,0.00
2024-04-06T00:02:43.244Z,0.00
2024-04-06T00:03:46.366Z,0.00
2024-04-06T00:04:45.040Z,0.00
2024-04-06T00:05:43.203Z,0.00
2024-04-06T00:06:43.113Z,0.00
2024-04-06T00:07:43.188Z,0.00
2024-04-06T00:08:43.124Z,0.00
2024-04-06T00:09:43.171Z,0.00
2024-04-06T00:10:43.073Z,0.00
2024-04-06T00:11:43.159Z,0.00
2024-04-06T00:12:43.231Z,0.00
2024-04-06T00:13:43.033Z,0.00
2024-04-06T00:14:43.009Z,0.00
2024-04-06T00:15:43.110Z,0.00
2024-04-06T00:16:42.993Z,0.00
2024-04-06T00:17:42.999Z,0.00
2024-04-06T00:18:42.972Z,0.00
2024-04-06T00:19:43.001Z,0.00
2024-04-06T00:20:43.464Z,0.00
2024-04-06T00:21:42.939Z,0.00
2024-04-06T00:22:42.945Z,0.00
2024-04-06T00:23:42.946Z,0.00
2024-04-06T00:24:42.928Z,0.00
2024-04-06T00:25:42.931Z,0.00
2024-04-06T00:26:42.921Z,0.00
2024-04-06T00:27:42.865Z,0.00
2024-04-06T00:28:42.874Z,0.00
2024-04-06T00:29:42.870Z,0.00
2024-04-06T00:30:42.847Z,0.00
2024-04-06T00:31:42.836Z,0.00
2024-04-06T00:32:42.847Z,0.00
2024-04-06T00:33:42.832Z,0.00
2024-04-06T00:34:42.798Z,0.00
2024-04-06T00:35:42.806Z,0.00
2024-04-06T00:36:42.754Z,0.00
2024-04-06T00:37:42.756Z,0.00
2024-04-06T00:38:42.742Z,0.00
2024-04-06T00:39:42.766Z,0.00
2024-04-06T00:40:42.812Z,0.00
2024-04-06T00:41:42.701Z,0.00
2024-04-06T00:42:42.698Z,0.00
2024-04-06T00:43:42.701Z,0.00
2024-04-06T00:44:42.722Z,0.00
2024-04-06T00:45:42.650Z,0.00
2024-04-06T00:46:42.667Z,0.00
2024-04-06T00:47:42.656Z,0.00
2024-04-06T00:48:42.629Z,0.00
2024-04-06T00:49:42.619Z,0.00
2024-04-06T00:50:42.659Z,0.00
2024-04-06T00:51:43.788Z,0.00
2024-04-06T00:52:43.628Z,0.00
2024-04-06T00:53:45.305Z,0.00
2024-04-06T00:54:43.786Z,0.00
2024-04-06T00:55:43.743Z,0.00
2024-04-06T00:56:43.605Z,0.00
2024-04-06T00:57:44.596Z,0.00
2024-04-06T00:58:44.194Z,0.00
2024-04-06T00:59:44.538Z,0.00
2024-04-06T01:00:42.691Z,0.00
2024-04-06T01:01:49.992Z,0.00
2024-04-06T01:02:44.519Z,0.00
2024-04-06T01:03:42.562Z,0.00
2024-04-06T01:04:42.474Z,0.00
2024-04-06T01:05:42.519Z,0.00
2024-04-06T01:06:42.695Z,0.00
2024-04-06T01:07:42.454Z,0.00
2024-04-06T01:08:43.094Z,0.00
2024-04-06T01:09:43.422Z,0.00
2024-04-06T01:10:43.556Z,0.00
2024-04-06T01:11:44.533Z,0.00
2024-04-06T01:12:44.616Z,0.00
2024-04-06T01:13:44.360Z,0.00
2024-04-06T01:14:43.471Z,0.00
2024-04-06T01:15:43.338Z,0.00
2024-04-06T01:16:43.656Z,0.00
2024-04-06T01:17:44.777Z,0.00
2024-04-06T01:18:42.302Z,0.00
2024-04-06T01:19:42.248Z,0.00
2024-04-06T01:20:42.258Z,0.00
2024-04-06T01:21:42.224Z,0.00
2024-04-06T01:22:43.805Z,0.00
2024-04-06T01:23:43.396Z,0.00
2024-04-06T01:24:44.293Z,0.00
2024-04-06T01:25:43.743Z,0.00
2024-04-06T01:26:43.922Z,0.00
2024-04-06T01:27:43.030Z,0.00
2024-04-06T01:28:43.110Z,0.00
2024-04-06T01:29:43.138Z,0.00
2024-04-06T01:30:43.108Z,0.00
2024-04-06T01:31:43.084Z,0.00
2024-04-06T01:32:43.103Z,0.00
2024-04-06T01:33:42.084Z,0.00
2024-04-06T01:34:42.095Z,0.00
2024-04-06T01:35:42.099Z,0.00
2024-04-06T01:36:42.093Z,0.00
2024-04-06T01:37:43.011Z,0.00
2024-04-06T01:38:42.050Z,0.00
2024-04-06T01:39:42.028Z,0.00
2024-04-06T01:40:42.046Z,0.00
2024-04-06T01:41:41.996Z,0.00
2024-04-06T01:42:41.976Z,0.00
2024-04-06T01:43:41.990Z,0.00
2024-04-06T01:44:42.918Z,0.00
2024-04-06T01:45:42.931Z,0.00
2024-04-06T01:46:42.907Z,0.00
2024-04-06T01:47:42.884Z,0.00
2024-04-06T01:48:42.912Z,0.00
2024-04-06T01:49:42.878Z,0.00
2024-04-06T01:50:42.849Z,0.00
2024-04-06T01:51:42.858Z,0.00
2024-04-06T01:52:42.835Z,0.00
2024-04-06T01:53:41.894Z,0.00
2024-04-06T01:54:42.823Z,0.00
2024-04-06T01:55:42.828Z,0.00
2024-04-06T01:56:41.832Z,0.00
2024-04-06T01:57:42.772Z,0.00
2024-04-06T01:58:42.754Z,0.00
2024-04-06T01:59:41.809Z,0.00
2024-04-06T02:00:41.825Z,0.00
2024-04-06T02:01:41.782Z,0.00
2024-04-06T02:02:42.724Z,0.00
2024-04-06T02:03:41.772Z,0.00
2024-04-06T02:04:42.723Z,0.00
2024-04-06T02:05:41.739Z,0.00
2024-04-06T02:06:41.730Z,0.00
2024-04-06T02:07:41.725Z,0.00
2024-04-06T02:08:42.599Z,0.00
2024-04-06T02:09:41.704Z,0.00
2024-04-06T02:10:41.700Z,0.00
2024-04-06T02:11:41.730Z,0.00
2024-04-06T02:12:41.661Z,0.00
2024-04-06T02:13:41.636Z,0.00
2024-04-06T02:14:41.617Z,0.00
2024-04-06T02:15:41.624Z,0.00
2024-04-06T02:16:41.616Z,0.00
2024-04-06T02:17:41.635Z,0.00
2024-04-06T02:18:41.638Z,0.00
2024-04-06T02:19:41.565Z,0.00
2024-04-06T02:20:41.583Z,0.00
2024-04-06T02:21:41.549Z,0.00
2024-04-06T02:22:41.551Z,0.00
2024-04-06T02:23:41.530Z,0.00
2024-04-06T02:24:41.544Z,0.00
2024-04-06T02:25:41.505Z,0.00
2024-04-06T02:26:41.492Z,0.00
2024-04-06T02:27:41.507Z,0.00
2024-04-06T02:28:41.472Z,0.00
2024-04-06T02:29:41.469Z,0.00
2024-04-06T02:30:41.495Z,0.00
2024-04-06T02:31:41.823Z,0.00
2024-04-06T02:32:41.458Z,0.00
2024-04-06T02:33:41.416Z,0.00
2024-04-06T02:34:41.400Z,0.00
2024-04-06T02:35:41.392Z,0.00
2024-04-06T02:36:41.423Z,0.00
2024-04-06T02:37:41.392Z,0.00
2024-04-06T02:38:41.360Z,0.00
2024-04-06T02:39:41.386Z,0.00
2024-04-06T02:40:41.346Z,0.00
2024-04-06T02:41:41.374Z,0.00
2024-04-06T02:42:41.324Z,0.00
2024-04-06T02:43:41.295Z,0.00
2024-04-06T02:44:41.344Z,0.00
2024-04-06T02:45:41.294Z,0.00
2024-04-06T02:46:41.266Z,0.00
2024-04-06T02:47:41.299Z,0.00
2024-04-06T02:48:41.292Z,0.00
2024-04-06T02:49:41.233Z,0.00
2024-04-06T02:50:41.234Z,0.00
2024-04-06T02:51:41.208Z,0.00
2024-04-06T02:52:41.188Z,0.00
2024-04-06T02:53:41.255Z,0.00
2024-04-06T02:54:41.195Z,0.00
2024-04-06T02:55:41.175Z,0.00
2024-04-06T02:56:41.165Z,0.00
2024-04-06T02:57:41.161Z,0.00
2024-04-06T02:58:41.183Z,0.00
2024-04-06T02:59:41.127Z,0.00
2024-04-06T03:00:41.190Z,0.00
2024-04-06T03:01:41.083Z,0.00
2024-04-06T03:02:41.102Z,0.00
2024-04-06T03:03:41.091Z,0.00
2024-04-06T03:04:41.103Z,0.00
2024-04-06T03:05:41.060Z,0.00
2024-04-06T03:06:41.064Z,0.00
2024-04-06T03:07:41.044Z,0.00
2024-04-06T03:08:41.049Z,0.00
2024-04-06T03:09:41.026Z,0.00
2024-04-06T03:10:41.031Z,0.00
2024-04-06T03:11:41.015Z,0.00
2024-04-06T03:12:41.006Z,0.00
2024-04-06T03:13:41.018Z,0.00
2024-04-06T03:14:40.948Z,0.00
2024-04-06T03:15:40.968Z,0.00
2024-04-06T03:16:40.967Z,0.00
2024-04-06T03:17:40.965Z,0.00
2024-04-06T03:18:40.916Z,0.00
2024-04-06T03:19:40.891Z,0.00
2024-04-06T03:20:40.880Z,0.00
2024-04-06T03:21:40.911Z,0.00
2024-04-06T03:22:40.860Z,0.00
2024-04-06T03:23:40.850Z,0.00
2024-04-06T03:24:40.832Z,0.00
2024-04-06T03:25:40.837Z,0.00
2024-04-06T03:26:40.844Z,0.00
2024-04-06T03:27:40.817Z,0.00
2024-04-06T03:28:40.807Z,0.00
2024-04-06T03:29:40.778Z,0.00
2024-04-06T03:30:40.792Z,0.00
2024-04-06T03:31:40.743Z,0.00
2024-04-06T03:32:40.761Z,0.00
2024-04-06T03:33:40.738Z,0.00
2024-04-06T03:34:40.744Z,0.00
2024-04-06T03:35:40.696Z,0.00
2024-04-06T03:36:40.722Z,0.00
2024-04-06T03:37:40.736Z,0.00
2024-04-06T03:38:40.663Z,0.00
2024-04-06T03:39:40.673Z,0.00
2024-04-06T03:40:40.640Z,0.00
2024-04-06T03:41:40.678Z,0.00
2024-04-06T03:42:40.616Z,0.00
2024-04-06T03:43:40.603Z,0.00
2024-04-06T03:44:40.627Z,0.00
2024-04-06T03:45:40.643Z,0.00
2024-04-06T03:46:40.580Z,0.00
2024-04-06T03:47:40.595Z,0.00
2024-04-06T03:48:40.556Z,0.00
2024-04-06T03:49:40.558Z,0.00
2024-04-06T03:50:40.542Z,0.00
2024-04-06T03:51:40.543Z,0.00
2024-04-06T03:52:40.489Z,0.00
2024-04-06T03:53:40.486Z,0.00
2024-04-06T03:54:40.491Z,0.00
2024-04-06T03:55:40.506Z,0.00
2024-04-06T03:56:40.461Z,0.00
2024-04-06T03:57:40.455Z,0.00
2024-04-06T03:58:40.421Z,0.00
2024-04-06T03:59:40.734Z,0.00
2024-04-06T04:00:40.426Z,0.00
2024-04-06T04:01:40.407Z,0.00
2024-04-06T04:02:40.393Z,0.00
2024-04-06T04:03:40.411Z,0.00
2024-04-06T04:04:40.358Z,0.00
2024-04-06T04:05:40.382Z,0.00
2024-04-06T04:06:40.332Z,0.00
2024-04-06T04:07:40.333Z,0.00
2024-04-06T04:08:40.376Z,0.00
2024-04-06T04:09:40.322Z,0.00
2024-04-06T04:10:40.306Z,0.00
2024-04-06T04:11:40.286Z,0.00
2024-04-06T04:12:40.333Z,0.00
2024-04-06T04:13:40.264Z,0.00
2024-04-06T04:14:40.251Z,0.00
2024-04-06T04:15:40.246Z,0.00
2024-04-06T04:16:40.244Z,0.00
2024-04-06T04:17:40.341Z,0.00
2024-04-06T04:18:40.253Z,0.00
2024-04-06T04:19:40.199Z,0.00
2024-04-06T04:20:40.196Z,0.00
2024-04-06T04:21:40.190Z,0.00
2024-04-06T04:22:40.177Z,0.00
2024-04-06T04:23:40.144Z,0.00
2024-04-06T04:24:40.179Z,0.00
2024-04-06T04:25:40.115Z,0.00
2024-04-06T04:26:40.111Z,0.00
2024-04-06T04:27:40.103Z,0.00
2024-04-06T04:28:40.094Z,0.00
2024-04-06T04:29:40.063Z,0.00
2024-04-06T04:30:40.097Z,0.00
2024-04-06T04:31:40.042Z,0.00
2024-04-06T04:32:40.130Z,0.00
2024-04-06T04:33:40.025Z,0.00
2024-04-06T04:34:40.172Z,0.00
2024-04-06T04:35:40.095Z,0.00
2024-04-06T04:36:39.992Z,0.00
2024-04-06T04:37:39.984Z,0.00
2024-04-06T04:38:39.972Z,0.00
2024-04-06T04:39:39.954Z,0.00
2024-04-06T04:40:39.987Z,0.00
2024-04-06T04:41:39.936Z,0.00
2024-04-06T04:42:39.908Z,0.00
2024-04-06T04:43:39.919Z,0.00
2024-04-06T04:44:43.357Z,0.00
2024-04-06T04:45:40.879Z,0.00
2024-04-06T04:46:39.878Z,0.00
2024-04-06T04:47:39.949Z,0.00
2024-04-06T04:48:39.850Z,0.00
2024-04-06T04:49:39.844Z,0.00
2024-04-06T04:50:39.826Z,5.62
2024-04-06T04:51:39.807Z,5.62
2024-04-06T04:52:39.805Z,5.62
2024-04-06T04:53:39.854Z,5.62
2024-04-06T04:54:39.784Z,5.62
2024-04-06T04:55:39.772Z,5.62
2024-04-06T04:56:39.779Z,5.62
2024-04-06T04:57:39.759Z,5.62
2024-04-06T04:58:39.772Z,11.25
2024-04-06T04:59:42.426Z,11.25
2024-04-06T05:00:39.698Z,11.25
2024-04-06T05:01:39.696Z,11.25
2024-04-06T05:02:39.682Z,16.88
2024-04-06T05:03:39.683Z,16.88
2024-04-06T05:04:39.668Z,16.88
2024-04-06T05:05:39.767Z,22.50
2024-04-06T05:06:39.633Z,22.50
2024-04-06T05:07:39.649Z,22.50
2024-04-06T05:08:39.622Z,28.12
2024-04-06T05:09:39.621Z,28.12
2024-04-06T05:10:39.619Z,33.75
2024-04-06T05:11:39.571Z,33.75
2024-04-06T05:12:39.576Z,39.38
2024-04-06T05:13:39.551Z,39.38
2024-04-06T05:14:39.541Z,39.38
2024-04-06T05:15:39.561Z,45.00
2024-04-06T05:16:39.520Z,45.00
2024-04-06T05:17:39.571Z,50.62
2024-04-06T05:18:39.483Z,50.62
2024-04-06T05:19:39.476Z,56.25
2024-04-06T05:20:39.510Z,56.25
2024-04-06T05:21:39.467Z,61.88
2024-04-06T05:22:39.436Z,61.88
2024-04-06T05:23:39.439Z,67.50
2024-04-06T05:24:39.448Z,73.12
2024-04-06T05:25:39.396Z,73.12
2024-04-06T05:26:39.439Z,78.75
2024-04-06T05:27:41.598Z,78.75
2024-04-06T05:28:39.400Z,84.38
2024-04-06T05:29:39.436Z,84.38
2024-04-06T05:30:39.372Z,90.00
2024-04-06T05:31:39.361Z,90.00
2024-04-06T05:32:39.348Z,95.62
2024-04-06T05:33:39.334Z,95.62
2024-04-06T05:34:39.303Z,101.25
2024-04-06T05:35:39.302Z,106.88
2024-04-06T05:36:39.276Z,112.50
2024-04-06T05:37:39.303Z,112.50
2024-04-06T05:38:39.282Z,112.50
2024-04-06T05:39:39.245Z,118.12
2024-04-06T05:40:39.251Z,123.75
2024-04-06T05:41:39.251Z,123.75
2024-04-06T05:42:39.254Z,129.38
2024-04-06T05:43:39.214Z,129.38
2024-04-06T05:44:39.239Z,129.38
2024-04-06T05:45:39.196Z,135.00
2024-04-06T05:46:39.203Z,135.00
2024-04-06T05:47:39.193Z,135.00
2024-04-06T05:48:39.154Z,135.00
2024-04-06T05:49:39.163Z,135.00
2024-04-06T05:50:39.266Z,135.00
2024-04-06T05:51:39.129Z,135.00
2024-04-06T05:52:39.130Z,135.00
2024-04-06T05:53:39.178Z,135.00
2024-04-06T05:54:39.066Z,135.00
2024-04-06T05:55:39.070Z,129.38
2024-04-06T05:56:39.167Z,129.38
2024-04-06T05:57:39.060Z,129.38
2024-04-06T05:58:39.035Z,129.38
2024-04-06T05:59:39.106Z,129.38
2024-04-06T06:00:39.021Z,129.38
2024-04-06T06:01:39.018Z,129.38
2024-04-06T06:02:39.047Z,123.75
2024-04-06T06:03:39.170Z,123.75
2024-04-06T06:04:38.953Z,129.38
2024-04-06T06:05:39.098Z,129.38
2024-04-06T06:06:38.954Z,129.38
2024-04-06T06:07:38.927Z,129.38
2024-04-06T06:08:39.057Z,129.38
2024-04-06T06:09:38.914Z,129.38
2024-04-06T06:10:38.935Z,129.38
2024-04-06T06:11:39.023Z,135.00
2024-04-06T06:12:39.006Z,135.00
2024-04-06T06:13:38.905Z,135.00
2024-04-06T06:14:38.939Z,140.62
2024-04-06T06:15:38.914Z,140.62
2024-04-06T06:16:38.870Z,140.62
2024-04-06T06:17:38.895Z,140.62
2024-04-06T06:18:38.808Z,140.62
2024-04-06T06:19:38.908Z,140.62
2024-04-06T06:20:38.875Z,146.25
2024-04-06T06:21:39.335Z,151.88
2024-04-06T06:22:38.806Z,151.88
2024-04-06T06:23:38.770Z,157.50
2024-04-06T06:24:38.734Z,163.12
2024-04-06T06:25:38.746Z,168.75
2024-04-06T06:26:38.797Z,163.12
2024-04-06T06:27:38.719Z,163.12
2024-04-06T06:28:38.791Z,168.75
2024-04-06T06:29:38.732Z,168.75
2024-04-06T06:30:38.679Z,168.75
2024-04-06T06:31:38.677Z,168.75
2024-04-06T06:32:38.681Z,168.75
2024-04-06T06:33:38.670Z,168.75
2024-04-06T06:34:38.631Z,174.38
2024-04-06T06:37:52.915Z,174.38
2024-04-06T06:40:41.145Z,174.38
2024-04-06T06:40:41.634Z,163.12
2024-04-06T06:41:39.736Z,163.12
2024-04-06T06:42:38.569Z,180.00
2024-04-06T06:43:38.533Z,180.00
2024-04-06T06:44:38.548Z,180.00
2024-04-06T06:45:38.488Z,180.00
2024-04-06T06:46:38.508Z,180.00
2024-04-06T06:47:38.859Z,185.62
2024-04-06T06:48:38.490Z,185.62
2024-04-06T06:49:38.468Z,185.62
2024-04-06T06:50:38.497Z,185.62
2024-04-06T06:51:38.420Z,185.62
2024-04-06T06:52:38.453Z,185.62
2024-04-06T06:53:38.456Z,185.62
2024-04-06T06:54:40.202Z,185.62
2024-04-06T06:55:38.374Z,185.62
2024-04-06T06:56:38.410Z,185.62
2024-04-06T06:57:38.374Z,185.62
2024-04-06T06:58:38.344Z,185.62
2024-04-06T07:00:38.329Z,191.25
2024-04-06T07:01:39.785Z,185.62
2024-04-06T07:02:38.321Z,185.62
2024-04-06T07:03:38.291Z,185.62
2024-04-06T07:04:38.302Z,191.25
2024-04-06T07:05:38.255Z,191.25
2024-04-06T07:07:38.279Z,174.38
2024-04-06T07:08:38.234Z,191.25
2024-04-06T07:09:38.228Z,202.50
2024-04-06T07:10:38.222Z,202.50
2024-04-06T07:11:38.206Z,202.50
2024-04-06T07:12:38.170Z,208.12
2024-04-06T07:13:38.204Z,202.50
2024-04-06T07:14:38.153Z,202.50
2024-04-06T07:15:38.173Z,191.25
2024-04-06T07:16:38.168Z,213.75
2024-04-06T07:17:38.191Z,213.75
2024-04-06T07:18:38.106Z,219.38
2024-04-06T07:19:38.140Z,225.00
2024-04-06T07:20:38.135Z,225.00
2024-04-06T07:21:38.076Z,230.62
2024-04-06T07:22:38.060Z,230.62
2024-04-06T07:23:38.043Z,230.62
2024-04-06T07:24:38.060Z,230.62
2024-04-06T07:25:38.013Z,230.62
2024-04-06T07:26:38.037Z,230.62
2024-04-06T07:27:38.083Z,230.62
2024-04-06T07:28:38.015Z,230.62
2024-04-06T07:29:38.055Z,230.62
2024-04-06T07:30:38.052Z,230.62
2024-04-06T07:31:38.122Z,230.62
2024-04-06T07:32:37.942Z,230.62
2024-04-06T07:33:37.982Z,230.62
2024-04-06T07:34:37.980Z,230.62
2024-04-06T07:35:38.012Z,230.62
2024-04-06T07:36:37.912Z,236.25
2024-04-06T07:37:37.962Z,236.25
2024-04-06T07:39:19.846Z,241.88
2024-04-06T07:39:38.872Z,241.88
2024-04-06T07:40:37.871Z,241.88
2024-04-06T07:41:37.829Z,241.88
2024-04-06T07:42:37.821Z,247.50
2024-04-06T07:43:37.847Z,247.50
2024-04-06T07:44:37.807Z,247.50
2024-04-06T07:45:37.813Z,247.50
2024-04-06T07:46:37.780Z,247.50
2024-04-06T07:47:37.776Z,247.50
2024-04-06T07:48:37.814Z,247.50
2024-04-06T07:49:38.674Z,247.50
2024-04-06T07:50:37.759Z,247.50
2024-04-06T07:51:37.745Z,253.12
2024-04-06T07:52:37.740Z,253.12
2024-04-06T07:53:37.722Z,253.12
2024-04-06T07:54:37.704Z,253.12
2024-04-06T07:55:37.666Z,258.75
2024-04-06T07:56:37.694Z,264.38
2024-04-06T07:57:37.652Z,258.75
2024-04-06T07:58:37.677Z,258.75
2024-04-06T07:59:37.653Z,258.75
2024-04-06T08:00:37.629Z,258.75
2024-04-06T08:01:37.593Z,264.38
2024-04-06T08:02:37.598Z,264.38
2024-04-06T08:03:37.630Z,264.38
2024-04-06T08:04:37.630Z,264.38
2024-04-06T08:05:37.556Z,270.00
2024-04-06T08:06:37.536Z,270.00
2024-04-06T08:07:37.545Z,270.00
2024-04-06T08:08:37.562Z,270.00
2024-04-06T08:09:37.507Z,270.00
2024-04-06T08:10:37.502Z,270.00
2024-04-06T08:11:37.527Z,270.00
2024-04-06T08:12:37.494Z,275.62
2024-04-06T08:13:37.522Z,275.62
2024-04-06T08:14:37.489Z,281.25
2024-04-06T08:15:37.429Z,281.25
2024-04-06T08:16:37.429Z,281.25
2024-04-06T08:17:37.443Z,286.88
2024-04-06T08:18:38.126Z,292.50
2024-04-06T08:19:37.389Z,292.50
2024-04-06T08:20:37.419Z,298.12
2024-04-06T08:21:37.382Z,303.75
2024-04-06T08:22:37.362Z,309.38
2024-04-06T08:23:37.343Z,309.38
2024-04-06T08:24:37.322Z,315.00
2024-04-06T08:25:37.332Z,315.00
2024-04-06T08:26:37.333Z,320.62
2024-04-06T08:27:37.345Z,326.25
2024-04-06T08:28:37.309Z,331.88
2024-04-06T08:29:37.277Z,337.50
2024-04-06T08:30:37.283Z,337.50
2024-04-06T08:31:37.275Z,343.12
2024-04-06T08:32:37.272Z,348.75
2024-04-06T08:33:37.247Z,354.38
2024-04-06T08:34:37.314Z,354.38
2024-04-06T08:35:37.264Z,360.00
2024-04-06T08:36:37.262Z,365.62
2024-04-06T08:37:37.170Z,365.62
2024-04-06T08:38:37.190Z,365.62
2024-04-06T08:39:37.161Z,365.62
2024-04-06T08:40:37.147Z,365.62
2024-04-06T08:41:37.145Z,365.62
2024-04-06T08:42:37.170Z,365.62
2024-04-06T08:43:37.113Z,360.00
2024-04-06T08:44:37.112Z,365.62
2024-04-06T08:45:37.106Z,371.25
2024-04-06T08:46:37.084Z,371.25
2024-04-06T08:47:40.894Z,365.62
2024-04-06T08:48:37.064Z,365.62
2024-04-06T08:49:37.087Z,360.00
2024-04-06T08:50:37.191Z,360.00
2024-04-06T08:51:37.015Z,354.38
2024-04-06T08:52:37.014Z,343.12
2024-04-06T08:53:37.031Z,326.25
2024-04-06T08:54:36.992Z,326.25
2024-04-06T08:55:36.990Z,326.25
2024-04-06T08:56:36.967Z,320.62
2024-04-06T08:57:36.963Z,326.25
2024-04-06T08:58:36.980Z,320.62
2024-04-06T08:59:36.932Z,303.75
2024-04-06T09:00:36.931Z,309.38
2024-04-06T09:01:36.914Z,286.88
2024-04-06T09:02:36.928Z,286.88
2024-04-06T09:03:36.886Z,292.50
2024-04-06T09:04:36.887Z,286.88
2024-04-06T09:05:36.871Z,298.12
2024-04-06T09:06:36.854Z,292.50
2024-04-06T09:07:36.930Z,281.25
2024-04-06T09:08:36.839Z,281.25
2024-04-06T09:09:37.787Z,281.25
2024-04-06T09:10:36.823Z,275.62
2024-04-06T09:11:36.795Z,286.88
2024-04-06T09:12:36.788Z,298.12
2024-04-06T09:13:36.811Z,298.12
2024-04-06T09:14:36.874Z,298.12
2024-04-06T09:15:36.758Z,292.50
2024-04-06T09:16:36.840Z,292.50
2024-04-06T09:17:36.776Z,292.50
2024-04-06T09:18:36.788Z,298.12
2024-04-06T09:19:36.713Z,303.75
2024-04-06T09:20:36.692Z,303.75
2024-04-06T09:21:36.724Z,303.75
2024-04-06T09:22:36.732Z,303.75
2024-04-06T09:23:36.704Z,303.75
2024-04-06T09:24:36.712Z,309.38
2024-04-06T09:25:36.654Z,303.75
2024-04-06T09:26:36.651Z,309.38
2024-04-06T09:27:36.672Z,309.38
2024-04-06T09:28:36.633Z,309.38
2024-04-06T09:29:36.660Z,309.38
2024-04-06T09:30:36.602Z,275.62
2024-04-06T09:31:36.767Z,315.00
2024-04-06T09:32:36.623Z,315.00
2024-04-06T09:33:36.545Z,315.00
2024-04-06T09:34:36.575Z,315.00
2024-04-06T09:35:39.436Z,315.00
2024-04-06T09:36:36.532Z,320.62
2024-04-06T09:37:38.233Z,320.62
2024-04-06T09:38:36.498Z,331.88
2024-04-06T09:39:36.527Z,326.25
2024-04-06T09:40:36.550Z,331.88
2024-04-06T09:41:36.496Z,337.50
2024-04-06T09:42:36.458Z,331.88
2024-04-06T09:43:36.502Z,331.88
2024-04-06T09:44:36.497Z,337.50
2024-04-06T09:45:36.425Z,343.12
2024-04-06T09:46:36.422Z,343.12
2024-04-06T09:47:36.487Z,343.12
2024-04-06T09:48:36.396Z,337.50
2024-04-06T09:49:36.387Z,343.12
2024-04-06T09:50:36.390Z,348.75
2024-04-06T09:51:38.132Z,343.12
2024-04-06T09:52:36.356Z,348.75
2024-04-06T09:53:36.341Z,331.88
2024-04-06T09:54:36.406Z,376.88
2024-04-06T09:55:36.345Z,399.38
2024-04-06T09:56:36.307Z,416.25
2024-04-06T09:57:36.373Z,433.12
2024-04-06T09:58:36.294Z,450.00
2024-04-06T09:59:37.235Z,466.88
2024-04-06T10:00:36.296Z,472.50
2024-04-06T10:01:36.250Z,466.88
2024-04-06T10:02:36.242Z,472.50
2024-04-06T10:03:36.246Z,478.12
2024-04-06T10:04:36.236Z,472.50
2024-04-06T10:05:36.214Z,472.50
2024-04-06T10:06:36.269Z,461.25
2024-04-06T10:07:36.451Z,450.00
2024-04-06T10:08:38.207Z,450.00
2024-04-06T10:09:36.168Z,438.75
2024-04-06T10:10:36.150Z,433.12
2024-04-06T10:11:36.166Z,444.38
2024-04-06T10:12:36.128Z,450.00
2024-04-06T10:13:36.114Z,461.25
2024-04-06T10:14:37.848Z,466.88
2024-04-06T10:15:36.153Z,466.88
2024-04-06T10:16:36.069Z,466.88
2024-04-06T10:17:36.047Z,461.25
2024-04-06T10:18:36.083Z,466.88
2024-04-06T10:19:36.032Z,472.50
2024-04-06T10:20:36.022Z,472.50
2024-04-06T10:21:36.023Z,472.50
2024-04-06T10:22:36.019Z,461.25
2024-04-06T10:23:36.089Z,455.62
2024-04-06T10:24:35.991Z,450.00
2024-04-06T10:25:35.980Z,450.00
2024-04-06T10:26:36.008Z,438.75
2024-04-06T10:27:35.950Z,433.12
2024-04-06T10:28:35.963Z,421.88
2024-04-06T10:29:35.904Z,421.88
2024-04-06T10:30:35.927Z,421.88
2024-04-06T10:31:42.625Z,416.25
2024-04-06T10:32:37.025Z,405.00
2024-04-06T10:33:35.905Z,399.38
2024-04-06T10:34:45.904Z,399.38
2024-04-06T10:35:37.834Z,388.12
2024-04-06T10:36:35.866Z,360.00
2024-04-06T10:37:38.085Z,360.00
2024-04-06T10:38:35.801Z,371.25
2024-04-06T10:39:35.798Z,382.50
2024-04-06T10:40:35.786Z,382.50
2024-04-06T10:41:35.912Z,388.12
2024-04-06T10:42:35.802Z,382.50
2024-04-06T10:43:35.750Z,382.50
2024-04-06T10:44:38.249Z,388.12
2024-04-06T10:45:35.728Z,393.75
2024-04-06T10:46:37.494Z,393.75
2024-04-06T10:47:35.726Z,382.50
2024-04-06T10:48:35.711Z,365.62
2024-04-06T10:49:35.675Z,354.38
2024-04-06T10:50:37.415Z,354.38
2024-04-06T10:51:35.766Z,360.00
2024-04-06T10:52:35.675Z,382.50
2024-04-06T10:53:35.654Z,410.62
2024-04-06T10:54:38.889Z,405.00
2024-04-06T10:55:35.639Z,376.88
2024-04-06T10:56:35.699Z,331.88
2024-04-06T10:57:35.829Z,360.00
2024-04-06T10:58:35.567Z,388.12
2024-04-06T10:59:35.600Z,360.00
2024-04-06T11:00:37.835Z,371.25
2024-04-06T11:01:35.583Z,360.00
2024-04-06T11:02:35.863Z,371.25
2024-04-06T11:03:35.554Z,371.25
2024-04-06T11:04:35.506Z,354.38
2024-04-06T11:05:35.518Z,348.75
2024-04-06T11:06:37.161Z,343.12
2024-04-06T11:07:35.474Z,343.12
2024-04-06T11:08:35.565Z,348.75
2024-04-06T11:09:35.471Z,348.75
2024-04-06T11:10:35.490Z,354.38
2024-04-06T11:11:35.444Z,354.38
2024-04-06T11:12:38.686Z,354.38
2024-04-06T11:13:35.417Z,354.38
2024-04-06T11:14:35.424Z,360.00
2024-04-06T11:15:35.461Z,360.00
2024-04-06T11:16:35.393Z,365.62
2024-04-06T11:17:35.365Z,365.62
2024-04-06T11:18:35.366Z,343.12
2024-04-06T11:19:35.369Z,360.00
2024-04-06T11:20:35.336Z,360.00
2024-04-06T11:21:35.381Z,371.25
2024-04-06T11:22:35.314Z,376.88
2024-04-06T11:23:35.353Z,382.50
2024-04-06T11:24:37.735Z,382.50
2024-04-06T11:25:35.285Z,382.50
2024-04-06T11:26:35.277Z,382.50
2024-04-06T11:27:35.279Z,388.12
2024-04-06T11:28:35.262Z,388.12
2024-04-06T11:29:35.365Z,393.75
2024-04-06T11:30:35.237Z,399.38
2024-04-06T11:31:35.231Z,399.38
2024-04-06T11:32:35.332Z,405.00
2024-04-06T11:33:35.186Z,405.00
2024-04-06T11:34:35.453Z,399.38
2024-04-06T11:35:35.183Z,399.38
2024-04-06T11:36:35.170Z,393.75
2024-04-06T11:37:35.169Z,382.50
2024-04-06T11:38:35.144Z,388.12
2024-04-06T11:39:35.147Z,393.75
2024-04-06T11:40:35.187Z,393.75
2024-04-06T11:41:35.113Z,393.75
2024-04-06T11:42:35.094Z,393.75
2024-04-06T11:43:35.122Z,405.00
2024-04-06T11:44:35.058Z,410.62
2024-04-06T11:45:35.068Z,416.25
2024-04-06T11:46:35.091Z,416.25
2024-04-06T11:47:35.103Z,421.88
2024-04-06T11:48:35.007Z,416.25
2024-04-06T11:49:35.007Z,421.88
2024-04-06T11:50:35.037Z,433.12
2024-04-06T11:51:36.707Z,433.12
2024-04-06T11:52:34.989Z,433.12
2024-04-06T11:53:34.967Z,427.50
2024-04-06T11:54:34.986Z,421.88
2024-04-06T11:55:34.936Z,427.50
2024-04-06T11:56:34.960Z,438.75
2024-04-06T11:57:34.946Z,438.75
2024-04-06T11:58:34.896Z,444.38
2024-04-06T11:59:34.892Z,450.00
2024-04-06T12:00:35.070Z,450.00
2024-04-06T12:01:34.902Z,461.25
2024-04-06T12:02:34.853Z,466.88
2024-04-06T12:03:34.854Z,478.12
2024-04-06T12:04:34.836Z,483.75
2024-04-06T12:05:34.861Z,489.38
2024-04-06T12:06:34.806Z,489.38
2024-04-06T12:07:34.827Z,495.00
2024-04-06T12:08:34.790Z,506.25
2024-04-06T12:09:35.002Z,511.88
2024-04-06T12:10:34.845Z,523.12
2024-04-06T12:11:34.763Z,517.50
2024-04-06T12:12:34.740Z,523.12
2024-04-06T12:13:34.722Z,523.12
2024-04-06T12:14:34.769Z,517.50
2024-04-06T12:15:34.749Z,523.12
2024-04-06T12:16:34.708Z,523.12
2024-04-06T12:17:34.678Z,523.12
2024-04-06T12:18:34.685Z,517.50
2024-04-06T12:19:34.723Z,511.88
2024-04-06T12:20:34.977Z,506.25
2024-04-06T12:21:34.655Z,500.62
2024-04-06T12:22:34.661Z,495.00
2024-04-06T12:23:34.636Z,495.00
2024-04-06T12:24:34.664Z,495.00
2024-04-06T12:25:34.650Z,500.62
2024-04-06T12:26:34.604Z,495.00
2024-04-06T12:27:34.555Z,495.00
2024-04-06T12:28:34.571Z,489.38
2024-04-06T12:29:34.553Z,483.75
2024-04-06T12:30:34.833Z,478.12
2024-04-06T12:31:34.534Z,466.88
2024-04-06T12:32:34.551Z,466.88
2024-04-06T12:33:34.518Z,472.50
2024-04-06T12:34:34.525Z,466.88
2024-04-06T12:35:34.480Z,466.88
2024-04-06T12:36:34.488Z,466.88
2024-04-06T12:37:34.707Z,466.88
2024-04-06T12:38:34.476Z,461.25
2024-04-06T12:39:34.417Z,455.62
2024-04-06T12:40:34.413Z,450.00
2024-04-06T12:41:34.440Z,444.38
2024-04-06T12:42:34.389Z,450.00
2024-04-06T12:43:34.397Z,455.62
2024-04-06T12:44:34.373Z,455.62
2024-04-06T12:45:34.455Z,461.25
2024-04-06T12:46:34.637Z,461.25
2024-04-06T12:47:34.378Z,466.88
2024-04-06T12:48:34.309Z,472.50
2024-04-06T12:49:34.315Z,472.50
2024-04-06T12:50:34.289Z,466.88
2024-04-06T12:51:34.303Z,461.25
2024-04-06T12:52:34.282Z,472.50
2024-04-06T12:53:34.303Z,478.12